Time;durP1;ratioP1;P1;durP2;ratioP2;P2;SDS_P1;SDS_P2;PMS_P1;PMS_P2;Temp;Humidity;BMP_temperature;BMP_pressure;BME280_temperature;BME280_humidity;BME280_pressure;Samples;Min_cycle;Max_cycle;Signal;HPM_P1;HPM_P2
2021/06/12 00:01:57;;;;;;;2.88;2.20;;;19.30;99.90;;;;;;5035155;28;20510;-81
2021/06/12 00:04:23;;;;;;;2.78;2.10;;;19.30;99.90;;;;;;5034334;28;20697;-80
2021/06/12 00:06:49;;;;;;;1.70;1.60;;;19.30;99.90;;;;;;5034670;28;20558;-80
2021/06/12 00:09:18;;;;;;;5.32;2.22;;;19.20;99.90;;;;;;5034465;28;20169;-80
2021/06/12 00:11:44;;;;;;;4.13;2.50;;;19.20;99.90;;;;;;5050148;28;20160;-80
2021/06/12 00:14:10;;;;;;;4.38;1.90;;;19.20;99.90;;;;;;5035777;28;20249;-81
2021/06/12 00:16:35;;;;;;;2.30;1.80;;;19.20;99.90;;;;;;5034340;28;20522;-80
2021/06/12 00:19:01;;;;;;;3.38;1.90;;;19.10;99.90;;;;;;5034111;28;20202;-80
2021/06/12 00:21:26;;;;;;;3.10;1.98;;;19.10;99.90;;;;;;5033097;28;20200;-79
2021/06/12 00:23:52;;;;;;;2.63;1.70;;;19.10;99.90;;;;;;5032939;28;20174;-80
2021/06/12 00:26:18;;;;;;;3.88;2.22;;;19.10;99.90;;;;;;5032131;28;20616;-80
2021/06/12 00:28:43;;;;;;;4.82;2.22;;;19.00;99.90;;;;;;5043568;28;20168;-80
2021/06/12 00:31:09;;;;;;;2.40;2.20;;;19.00;99.90;;;;;;5035753;28;20190;-80
2021/06/12 00:33:34;;;;;;;2.40;2.20;;;19.00;99.90;;;;;;5052506;28;20616;-81
2021/06/12 00:36:00;;;;;;;4.60;2.47;;;18.90;99.90;;;;;;5049017;28;20256;-80
2021/06/12 00:38:26;;;;;;;2.72;2.22;;;18.90;99.90;;;;;;5033892;28;20175;-80
2021/06/12 00:40:51;;;;;;;5.97;1.80;;;18.90;99.90;;;;;;5032785;28;20625;-80
2021/06/12 00:43:17;;;;;;;2.10;1.90;;;18.90;99.90;;;;;;5049374;28;20175;-80
2021/06/12 00:45:46;;;;;;;3.35;2.28;;;18.90;99.90;;;;;;5033463;28;20612;-80
2021/06/12 00:48:13;;;;;;;6.03;2.42;;;18.70;99.90;;;;;;5013948;28;20173;-81
2021/06/12 00:50:39;;;;;;;3.00;1.95;;;18.70;99.90;;;;;;5029328;28;20190;-80
2021/06/12 00:53:04;;;;;;;3.22;2.22;;;18.60;99.90;;;;;;5013924;28;20196;-80
2021/06/12 00:55:30;;;;;;;4.63;1.90;;;18.70;99.90;;;;;;5014042;28;20196;-80
2021/06/12 00:57:57;;;;;;;3.22;2.15;;;18.60;99.90;;;;;;5027811;28;20632;-80
2021/06/12 01:00:23;;;;;;;3.65;2.70;;;18.60;99.90;;;;;;5033630;28;20183;-81
2021/06/12 01:02:49;;;;;;;2.20;2.00;;;18.50;99.90;;;;;;5033400;28;20505;-80
2021/06/12 01:05:18;;;;;;;2.65;2.05;;;18.50;99.90;;;;;;5033586;28;20172;-80
2021/06/12 01:07:44;;;;;;;2.40;2.03;;;18.40;99.90;;;;;;5047027;28;20163;-81
2021/06/12 01:10:12;;;;;;;3.30;2.00;;;18.30;99.90;;;;;;5033704;28;20500;-81
2021/06/12 01:13:09;;;;;;;4.15;2.08;;;18.20;99.90;;;;;;5033476;28;20619;-81
2021/06/12 01:15:51;;;;;;;3.05;2.25;;;18.10;99.90;;;;;;5033216;28;20200;-82
2021/06/12 01:18:20;;;;;;;3.15;2.13;;;18.00;99.90;;;;;;5034368;28;20194;-81
2021/06/12 01:20:52;;;;;;;3.28;2.42;;;17.90;99.90;;;;;;5049193;28;20607;-80
2021/06/12 01:23:38;;;;;;;2.20;2.10;;;17.90;99.90;;;;;;5033444;28;20501;-81
2021/06/12 01:26:22;;;;;;;4.00;2.53;;;17.90;99.90;;;;;;5048757;28;20168;-80
2021/06/12 01:29:01;;;;;;;2.60;2.40;;;17.90;99.90;;;;;;5051467;28;20179;-81
2021/06/12 01:31:27;;;;;;;3.55;2.92;;;17.80;99.90;;;;;;5052755;28;20262;-81
2021/06/12 01:33:54;;;;;;;6.03;2.85;;;17.90;99.90;;;;;;5068543;28;20552;-81
2021/06/12 01:36:21;;;;;;;4.38;2.45;;;17.90;99.90;;;;;;5046136;28;20175;-80
2021/06/12 01:38:50;;;;;;;4.75;2.90;;;17.90;99.90;;;;;;5033153;28;20209;-81
2021/06/12 01:41:21;;;;;;;7.38;3.15;;;18.00;99.90;;;;;;5031999;28;20522;-81
2021/06/12 01:43:48;;;;;;;3.10;2.80;;;18.00;99.90;;;;;;5033361;28;20164;-80
2021/06/12 01:46:15;;;;;;;2.78;2.58;;;18.00;99.90;;;;;;5033070;28;20175;-81
2021/06/12 01:48:45;;;;;;;3.58;3.28;;;18.00;99.90;;;;;;5031899;28;20294;-81
2021/06/12 01:51:12;;;;;;;3.20;2.90;;;18.00;99.90;;;;;;5033094;28;20164;-80
2021/06/12 01:53:40;;;;;;;2.97;2.67;;;18.00;99.90;;;;;;5031594;28;20255;-81
2021/06/12 01:56:07;;;;;;;3.42;2.90;;;17.90;99.90;;;;;;5032970;28;20207;-81
2021/06/12 01:58:36;;;;;;;4.05;2.85;;;18.00;99.90;;;;;;5032753;28;20215;-80
2021/06/12 02:01:04;;;;;;;2.92;2.63;;;17.90;99.90;;;;;;5032979;28;20226;-81
2021/06/12 02:03:31;;;;;;;5.20;2.65;;;17.90;99.90;;;;;;5033011;28;20168;-81
2021/06/12 02:05:59;;;;;;;3.90;3.60;;;17.90;99.90;;;;;;5033904;28;20624;-80
2021/06/12 02:08:26;;;;;;;6.93;3.50;;;17.80;99.90;;;;;;5051334;28;20167;-81
2021/06/12 02:10:53;;;;;;;8.25;3.97;;;17.70;99.90;;;;;;5052742;28;20176;-81
2021/06/12 02:13:23;;;;;;;6.25;3.92;;;17.70;99.90;;;;;;5052809;28;20163;-81
2021/06/12 02:15:54;;;;;;;4.85;3.50;;;17.70;99.90;;;;;;5052523;28;20186;-80
2021/06/12 02:18:22;;;;;;;7.50;4.32;;;17.60;99.90;;;;;;5050727;28;20167;-81
2021/06/12 02:20:50;;;;;;;4.72;4.30;;;17.60;99.90;;;;;;5052626;28;20167;-81
2021/06/12 02:23:16;;;;;;;6.80;4.47;;;17.60;99.90;;;;;;5052941;28;20259;-80
2021/06/12 02:25:42;;;;;;;4.78;4.38;;;17.50;99.90;;;;;;5052656;28;20179;-81
2021/06/12 02:28:11;;;;;;;8.65;4.72;;;17.50;99.90;;;;;;5050314;28;20511;-81
2021/06/12 02:30:46;;;;;;;6.95;5.10;;;17.50;99.90;;;;;;5032925;28;20271;-80
2021/06/12 02:33:15;;;;;;;7.25;4.80;;;17.50;99.90;;;;;;5032669;28;20542;-80
2021/06/12 02:35:41;;;;;;;6.68;5.60;;;17.50;99.90;;;;;;5041501;28;20196;-81
2021/06/12 02:38:07;;;;;;;9.90;4.93;;;17.60;99.90;;;;;;5043268;28;20258;-80
2021/06/12 02:40:33;;;;;;;6.15;4.85;;;17.60;99.90;;;;;;5031438;28;20258;-80
2021/06/12 02:42:59;;;;;;;11.25;5.15;;;17.60;99.90;;;;;;5033322;28;20299;-81
2021/06/12 02:45:25;;;;;;;5.95;5.30;;;17.70;99.90;;;;;;5036066;28;20249;-80
2021/06/12 02:47:54;;;;;;;8.18;5.68;;;17.70;99.90;;;;;;5037254;28;20180;-81
2021/06/12 02:50:24;;;;;;;7.15;5.70;;;17.70;99.90;;;;;;5056156;28;20168;-80
2021/06/12 02:52:53;;;;;;;8.73;5.43;;;17.70;99.90;;;;;;5054783;28;20183;-80
2021/06/12 02:55:20;;;;;;;6.72;5.95;;;17.80;99.90;;;;;;5054509;28;20530;-80
2021/06/12 02:57:49;;;;;;;6.68;6.18;;;17.80;99.90;;;;;;5040932;28;20168;-80
2021/06/12 03:00:18;;;;;;;6.78;6.15;;;17.80;99.90;;;;;;5036125;28;20172;-80
2021/06/12 03:02:45;;;;;;;11.63;7.55;;;17.90;99.90;;;;;;5055924;28;20194;-80
2021/06/12 03:05:17;;;;;;;8.05;7.07;;;17.80;99.90;;;;;;5050661;28;20655;-80
2021/06/12 03:07:47;;;;;;;12.50;7.78;;;17.90;99.90;;;;;;5035630;28;20254;-80
2021/06/12 03:10:13;;;;;;;10.20;8.02;;;17.80;99.90;;;;;;5052120;28;20168;-81
2021/06/12 03:12:41;;;;;;;16.23;8.00;;;17.80;99.90;;;;;;5035532;28;20172;-81
2021/06/12 03:15:08;;;;;;;10.07;8.80;;;17.80;99.90;;;;;;5035440;28;20605;-80
2021/06/12 03:17:35;;;;;;;10.82;9.68;;;17.80;99.90;;;;;;5035647;28;20204;-80
2021/06/12 03:20:04;;;;;;;15.32;10.15;;;17.80;99.90;;;;;;5036636;28;20168;-80
2021/06/12 03:22:31;;;;;;;15.20;10.18;;;17.70;99.90;;;;;;5034096;28;20691;-80
2021/06/12 03:25:07;;;;;;;10.93;9.50;;;17.70;99.90;;;;;;5035700;28;20512;-79
2021/06/12 03:27:34;;;;;;;17.98;11.40;;;17.70;99.90;;;;;;5034259;28;20171;-80
2021/06/12 03:30:00;;;;;;;15.85;10.93;;;17.70;99.90;;;;;;5052836;28;20516;-81
2021/06/12 03:32:26;;;;;;;17.77;11.95;;;17.80;99.90;;;;;;5053599;28;20171;-80
2021/06/12 03:34:52;;;;;;;14.15;11.23;;;17.70;99.90;;;;;;5053143;28;20199;-81
2021/06/12 03:37:19;;;;;;;19.52;11.60;;;17.70;99.90;;;;;;5043221;28;20178;-80
2021/06/12 03:39:45;;;;;;;21.33;12.00;;;17.70;99.90;;;;;;5054906;28;20246;-81
2021/06/12 03:42:12;;;;;;;15.40;11.95;;;17.70;99.90;;;;;;5047749;28;20226;-80
2021/06/12 03:44:38;;;;;;;20.05;12.77;;;17.70;99.90;;;;;;5035212;28;20164;-80
2021/06/12 03:47:06;;;;;;;16.92;12.35;;;17.80;99.90;;;;;;5035068;28;20161;-80
2021/06/12 03:49:33;;;;;;;26.70;12.73;;;17.80;99.90;;;;;;5034887;28;20251;-81
2021/06/12 03:51:59;;;;;;;21.42;13.82;;;17.70;99.90;;;;;;5036249;28;20221;-80
2021/06/12 03:54:25;;;;;;;28.10;14.23;;;17.60;99.90;;;;;;5034145;28;20192;-80
2021/06/12 03:56:51;;;;;;;19.33;12.75;;;17.50;99.90;;;;;;5035038;28;20238;-80
2021/06/12 03:59:17;;;;;;;23.08;15.10;;;17.30;99.90;;;;;;5034884;28;20612;-81
2021/06/12 04:01:43;;;;;;;23.50;14.23;;;17.30;99.90;;;;;;5034639;28;20195;-80
2021/06/12 04:04:08;;;;;;;21.73;14.40;;;17.20;99.90;;;;;;5035919;28;20172;-80
2021/06/12 04:06:34;;;;;;;25.42;16.13;;;17.20;99.90;;;;;;5043108;28;20167;-80
2021/06/12 04:09:00;;;;;;;27.42;17.08;;;17.20;99.90;;;;;;5034425;28;20186;-80
2021/06/12 04:11:25;;;;;;;26.13;15.90;;;17.20;99.90;;;;;;5034567;28;20566;-80
2021/06/12 04:13:51;;;;;;;30.85;15.35;;;17.30;99.90;;;;;;5035391;28;20206;-80
2021/06/12 04:16:17;;;;;;;28.58;17.17;;;17.40;99.90;;;;;;5034726;28;20237;-80
2021/06/12 04:18:44;;;;;;;25.90;16.73;;;17.50;99.90;;;;;;5034298;28;20599;-81
2021/06/12 04:21:10;;;;;;;19.52;15.55;;;17.50;99.90;;;;;;5034340;28;20172;-80
2021/06/12 04:23:35;;;;;;;25.67;16.98;;;17.40;99.90;;;;;;5034191;28;20171;-80
2021/06/12 04:26:01;;;;;;;27.98;17.50;;;17.30;99.90;;;;;;5035361;28;20171;-80
2021/06/12 04:28:26;;;;;;;28.80;16.48;;;17.20;99.90;;;;;;5034520;28;20164;-80
2021/06/12 04:30:53;;;;;;;27.92;16.77;;;17.30;99.90;;;;;;5034033;28;20184;-80
2021/06/12 04:33:19;;;;;;;26.30;17.08;;;17.40;99.90;;;;;;5040817;28;20241;-80
2021/06/12 04:35:45;;;;;;;28.20;17.10;;;17.40;99.90;;;;;;5050983;28;20601;-80
2021/06/12 04:38:11;;;;;;;29.08;17.70;;;17.40;99.90;;;;;;5037881;28;20168;-80
2021/06/12 04:40:37;;;;;;;25.35;16.83;;;17.40;99.90;;;;;;5032724;28;20660;-81
2021/06/12 04:43:06;;;;;;;26.20;16.80;;;17.50;99.90;;;;;;5034000;28;20243;-80
2021/06/12 04:45:31;;;;;;;30.10;17.38;;;17.70;99.90;;;;;;5034831;28;20428;-81
2021/06/12 04:47:57;;;;;;;25.95;16.95;;;17.80;99.90;;;;;;5033896;28;20171;-81
2021/06/12 04:50:23;;;;;;;28.60;17.13;;;17.90;99.90;;;;;;5033805;28;20263;-81
2021/06/12 04:52:49;;;;;;;30.63;17.27;;;18.00;99.90;;;;;;5032386;28;20569;-81
2021/06/12 04:55:16;;;;;;;26.48;16.70;;;18.10;99.90;;;;;;5033972;28;20195;-80
2021/06/12 04:57:42;;;;;;;26.40;16.33;;;18.20;99.90;;;;;;5034868;28;20176;-80
2021/06/12 05:00:10;;;;;;;27.23;16.02;;;18.10;99.90;;;;;;5032358;28;20321;-81
2021/06/12 05:02:35;;;;;;;22.85;16.80;;;18.20;99.90;;;;;;5038957;28;20628;-81
2021/06/12 05:05:01;;;;;;;26.15;16.60;;;18.30;99.90;;;;;;5053057;28;20182;-80
2021/06/12 05:07:27;;;;;;;28.85;17.35;;;18.30;99.90;;;;;;5050704;28;20634;-81
2021/06/12 05:09:53;;;;;;;24.65;16.73;;;18.40;99.90;;;;;;5035807;28;20174;-81
2021/06/12 05:12:19;;;;;;;23.85;17.25;;;18.40;99.90;;;;;;5052160;28;20213;-81
2021/06/12 05:14:47;;;;;;;29.38;16.25;;;18.50;99.90;;;;;;5052137;28;20544;-81
2021/06/12 05:17:16;;;;;;;26.73;17.30;;;18.60;99.90;;;;;;5051568;28;20172;-81
2021/06/12 05:19:41;;;;;;;25.20;17.85;;;18.50;99.90;;;;;;5033279;28;20251;-80
2021/06/12 05:22:07;;;;;;;27.27;17.08;;;18.70;99.90;;;;;;5065637;28;20250;-81
2021/06/12 05:24:36;;;;;;;22.98;16.27;;;18.70;99.90;;;;;;5052104;28;20486;-81
2021/06/12 05:27:04;;;;;;;23.80;16.60;;;18.70;99.90;;;;;;5053252;28;20548;-80
2021/06/12 05:29:29;;;;;;;25.13;16.67;;;18.60;99.90;;;;;;5051394;28;20508;-80
2021/06/12 05:31:55;;;;;;;26.95;17.23;;;18.70;99.90;;;;;;5050663;28;20167;-81
2021/06/12 05:34:21;;;;;;;22.52;16.02;;;18.70;99.90;;;;;;5033014;28;20206;-81
2021/06/12 05:36:46;;;;;;;23.67;16.90;;;18.70;99.90;;;;;;5037899;28;20159;-81
2021/06/12 05:39:12;;;;;;;23.45;16.10;;;18.80;99.90;;;;;;5051485;28;20674;-81
2021/06/12 05:41:39;;;;;;;23.75;16.42;;;18.70;99.90;;;;;;5053020;28;20168;-81
2021/06/12 05:44:05;;;;;;;26.42;17.05;;;18.80;99.90;;;;;;5053161;28;20159;-81
2021/06/12 05:46:31;;;;;;;24.73;17.02;;;18.90;99.90;;;;;;5068513;28;20159;-81
2021/06/12 05:48:59;;;;;;;26.95;17.77;;;18.80;99.90;;;;;;5052936;28;20242;-82
2021/06/12 05:51:25;;;;;;;23.88;17.30;;;18.80;99.90;;;;;;5051556;28;20172;-81
2021/06/12 05:53:50;;;;;;;27.75;18.42;;;18.90;99.90;;;;;;5052494;28;20568;-80
2021/06/12 05:56:16;;;;;;;29.08;18.50;;;18.80;99.90;;;;;;5035200;28;20616;-81
2021/06/12 05:58:42;;;;;;;25.02;17.98;;;18.80;99.90;;;;;;5068376;28;20619;-81
2021/06/12 06:01:09;;;;;;;28.35;17.20;;;18.80;99.90;;;;;;5051817;28;20203;-81
2021/06/12 06:03:35;;;;;;;22.75;17.15;;;18.90;99.90;;;;;;5068191;28;20207;-81
2021/06/12 06:06:00;;;;;;;21.83;16.90;;;18.90;99.90;;;;;;5052867;28;20160;-81
2021/06/12 06:08:26;;;;;;;26.17;19.00;;;18.90;99.90;;;;;;5033958;28;20230;-81
2021/06/12 06:10:52;;;;;;;20.40;16.55;;;19.10;99.90;;;;;;5033845;28;20168;-81
2021/06/12 06:13:18;;;;;;;27.80;16.88;;;19.10;99.90;;;;;;5053221;28;20163;-81
2021/06/12 06:15:44;;;;;;;24.90;17.45;;;19.20;99.90;;;;;;5053045;28;20667;-81
2021/06/12 06:18:09;;;;;;;30.35;17.17;;;19.20;99.90;;;;;;5055173;28;20194;-81
2021/06/12 06:20:35;;;;;;;21.40;16.65;;;19.30;99.90;;;;;;5056778;28;20155;-80
2021/06/12 06:23:01;;;;;;;25.02;15.82;;;19.30;99.90;;;;;;5041406;28;20172;-80
2021/06/12 06:25:27;;;;;;;22.65;17.60;;;19.30;99.90;;;;;;5036556;28;20175;-80
2021/06/12 06:27:52;;;;;;;24.98;17.75;;;19.30;99.90;;;;;;5036495;28;20252;-81
2021/06/12 06:30:18;;;;;;;24.75;17.23;;;19.40;99.90;;;;;;5040506;28;20194;-80
2021/06/12 06:32:44;;;;;;;23.35;17.05;;;19.50;99.90;;;;;;5054389;28;20164;-80
2021/06/12 06:35:12;;;;;;;32.33;18.10;;;19.60;99.90;;;;;;5056180;28;20203;-80
2021/06/12 06:37:38;;;;;;;24.42;18.02;;;19.60;99.90;;;;;;5069731;28;20250;-80
2021/06/12 06:40:04;;;;;;;21.58;18.13;;;19.50;99.90;;;;;;5056030;28;20727;-79
2021/06/12 06:42:30;;;;;;;20.77;17.35;;;19.50;99.90;;;;;;5055430;28;20243;-81
2021/06/12 06:44:55;;;;;;;24.52;20.05;;;19.50;99.90;;;;;;5053751;28;20290;-80
2021/06/12 06:47:21;;;;;;;25.67;18.42;;;19.50;99.90;;;;;;5038101;28;20310;-80
2021/06/12 06:49:47;;;;;;;28.42;18.60;;;19.60;99.90;;;;;;5056635;28;20164;-80
2021/06/12 06:52:12;;;;;;;29.73;18.48;;;19.60;99.90;;;;;;5055924;28;20168;-81
2021/06/12 06:54:38;;;;;;;26.30;18.58;;;19.70;99.90;;;;;;5052938;28;20195;-79
2021/06/12 06:57:04;;;;;;;26.65;17.70;;;19.70;99.90;;;;;;5055884;28;20701;-78
2021/06/12 06:59:30;;;;;;;23.30;18.38;;;19.70;99.90;;;;;;5071277;28;20183;-78
2021/06/12 07:01:56;;;;;;;31.95;19.25;;;19.70;99.90;;;;;;5037370;28;20184;-78
2021/06/12 07:04:21;;;;;;;27.83;19.77;;;19.40;99.90;;;;;;5036941;28;20176;-78
2021/06/12 07:06:51;;;;;;;20.92;18.58;;;19.40;99.90;;;;;;5039987;28;20259;-79
2021/06/12 07:09:16;;;;;;;23.75;18.98;;;19.50;99.90;;;;;;5055920;28;20477;-79
2021/06/12 07:11:45;;;;;;;25.17;19.63;;;19.50;99.90;;;;;;5055558;28;20185;-78
2021/06/12 07:14:11;;;;;;;28.25;19.25;;;19.60;99.90;;;;;;5054150;28;20195;-80
2021/06/12 07:16:36;;;;;;;28.27;21.27;;;19.60;99.90;;;;;;5058086;28;20625;-80
2021/06/12 07:19:02;;;;;;;26.83;20.50;;;19.70;99.90;;;;;;5035354;28;20168;-81
2021/06/12 07:21:27;;;;;;;23.70;20.40;;;19.70;99.90;;;;;;5038013;28;20250;-80
2021/06/12 07:23:53;;;;;;;31.05;20.20;;;19.70;99.90;;;;;;5035550;28;20171;-80
2021/06/12 07:26:19;;;;;;;33.33;21.63;;;19.70;99.90;;;;;;5035151;28;20175;-80
2021/06/12 07:28:44;;;;;;;27.23;19.60;;;19.60;99.90;;;;;;5034138;28;20239;-80
2021/06/12 07:31:10;;;;;;;30.90;21.75;;;19.70;99.90;;;;;;5048306;28;20191;-79
2021/06/12 07:33:36;;;;;;;25.73;20.25;;;19.60;99.90;;;;;;5050038;28;20702;-81
2021/06/12 07:36:02;;;;;;;24.85;20.77;;;19.80;99.90;;;;;;5035047;28;20222;-79
2021/06/12 07:38:28;;;;;;;28.20;21.90;;;19.80;99.90;;;;;;5049806;28;20210;-80
2021/06/12 07:40:54;;;;;;;25.35;20.80;;;19.90;99.90;;;;;;5049088;28;20171;-80
2021/06/12 07:43:20;;;;;;;23.80;19.63;;;20.10;99.90;;;;;;5045071;28;20570;-80
2021/06/12 07:45:49;;;;;;;24.02;19.58;;;20.20;99.90;;;;;;5045406;28;20710;-83
2021/06/12 07:48:16;;;;;;;21.92;17.92;;;20.10;99.90;;;;;;5035182;28;20167;-79
2021/06/12 07:50:42;;;;;;;19.65;17.65;;;20.20;99.90;;;;;;5034923;28;20404;-80
2021/06/12 07:53:08;;;;;;;23.98;19.20;;;20.40;99.90;;;;;;5038904;28;20195;-79
2021/06/12 07:55:34;;;;;;;26.02;18.83;;;20.50;99.90;;;;;;5040807;28;20227;-81
2021/06/12 07:58:00;;;;;;;19.90;17.83;;;20.70;99.90;;;;;;5043195;28;20250;-80
2021/06/12 08:00:26;;;;;;;22.38;18.52;;;20.80;99.90;;;;;;5053986;28;20198;-79
2021/06/12 08:02:51;;;;;;;22.25;18.23;;;20.80;99.90;;;;;;5054953;28;20163;-79
2021/06/12 08:05:17;;;;;;;19.52;17.42;;;20.80;99.90;;;;;;5049297;28;20251;-79
2021/06/12 08:07:43;;;;;;;20.10;17.95;;;20.80;99.90;;;;;;5034465;28;20171;-79
2021/06/12 08:10:09;;;;;;;22.05;18.92;;;20.60;99.90;;;;;;5034620;28;20247;-79
2021/06/12 08:12:36;;;;;;;22.70;19.38;;;20.40;99.90;;;;;;5034384;28;20167;-79
2021/06/12 08:15:04;;;;;;;21.67;19.35;;;20.60;99.90;;;;;;5042952;28;20562;-79
2021/06/12 08:17:30;;;;;;;20.85;18.67;;;20.80;99.90;;;;;;5067997;28;20167;-80
2021/06/12 08:19:56;;;;;;;22.80;19.92;;;21.00;99.90;;;;;;5053240;28;20160;-79
2021/06/12 08:22:21;;;;;;;21.92;17.98;;;21.10;99.90;;;;;;5054347;28;20171;-78
2021/06/12 08:24:49;;;;;;;19.55;17.58;;;21.00;99.90;;;;;;5042726;28;20628;-80
2021/06/12 08:27:15;;;;;;;21.15;18.95;;;21.10;99.90;;;;;;5065716;28;20168;-81
2021/06/12 08:29:40;;;;;;;22.48;19.55;;;20.90;99.90;;;;;;5035669;28;20531;-79
2021/06/12 08:32:07;;;;;;;26.20;18.45;;;20.90;99.90;;;;;;5034211;28;20195;-80
2021/06/12 08:34:33;;;;;;;19.60;17.67;;;21.10;99.90;;;;;;5031454;28;20211;-80
2021/06/12 08:37:00;;;;;;;17.67;15.82;;;21.20;99.90;;;;;;5034540;28;20494;-79
2021/06/12 08:39:25;;;;;;;18.80;16.80;;;21.20;99.90;;;;;;5034733;28;20187;-79
2021/06/12 08:41:51;;;;;;;19.15;16.40;;;21.30;99.90;;;;;;5064149;28;20175;-79
2021/06/12 08:44:21;;;;;;;18.48;16.52;;;21.60;99.90;;;;;;5034129;28;20609;-79
2021/06/12 08:46:48;;;;;;;17.15;15.43;;;21.80;99.90;;;;;;5026864;28;20177;-79
2021/06/12 08:49:14;;;;;;;16.27;14.93;;;21.90;99.90;;;;;;5026756;28;20259;-82
2021/06/12 08:51:40;;;;;;;16.42;14.65;;;22.20;99.90;;;;;;5025521;28;20171;-80
2021/06/12 08:54:06;;;;;;;15.48;14.27;;;22.40;99.90;;;;;;5030516;28;20206;-79
2021/06/12 08:56:32;;;;;;;15.23;13.88;;;22.70;99.90;;;;;;5027404;28;20568;-79
2021/06/12 08:58:57;;;;;;;15.93;14.10;;;22.80;99.90;;;;;;5031357;28;20191;-80
2021/06/12 09:01:23;;;;;;;17.00;13.93;;;22.70;99.90;;;;;;5024138;28;20756;-79
2021/06/12 09:03:49;;;;;;;15.93;14.27;;;23.00;99.90;;;;;;5026131;28;20171;-79
2021/06/12 09:06:22;;;;;;;15.98;14.35;;;23.00;99.90;;;;;;5033592;28;20178;-79
2021/06/12 09:08:48;;;;;;;15.57;13.00;;;23.10;99.90;;;;;;5032860;28;20175;-79
2021/06/12 09:11:16;;;;;;;15.70;14.13;;;23.20;99.90;;;;;;5031241;28;20179;-79
2021/06/12 09:13:45;;;;;;;15.13;13.25;;;23.00;99.90;;;;;;5028816;28;20531;-79
2021/06/12 09:16:28;;;;;;;15.50;14.05;;;23.20;99.90;;;;;;5030365;28;20168;-79
2021/06/12 09:18:56;;;;;;;15.50;14.02;;;23.10;99.90;;;;;;5033223;28;20164;-83
2021/06/12 09:21:34;;;;;;;15.57;14.05;;;23.10;99.90;;;;;;5049331;28;20565;-83
2021/06/12 09:24:01;;;;;;;16.00;14.60;;;23.30;99.90;;;;;;5033995;28;20175;-86
2021/06/12 09:27:08;;;;;;;15.18;13.80;;;23.40;99.90;;;;;;5031507;28;20599;-84
2021/06/12 09:29:39;;;;;;;17.30;15.73;;;23.50;99.90;;;;;;5006360;28;20284;-83
2021/06/12 09:32:30;;;;;;;16.35;14.90;;;23.30;99.90;;;;;;5039363;28;20183;-84
2021/06/12 09:35:07;;;;;;;16.92;13.48;;;23.20;99.90;;;;;;5032523;28;20589;-84
2021/06/12 09:37:34;;;;;;;20.45;15.02;;;23.30;99.90;;;;;;5013146;28;20544;-85
2021/06/12 09:40:04;;;;;;;16.40;14.77;;;23.50;99.90;;;;;;5012007;28;20196;-82
2021/06/12 09:42:48;;;;;;;17.27;15.60;;;23.70;99.90;;;;;;5032830;28;20263;-84
2021/06/12 09:45:21;;;;;;;15.18;13.63;;;24.00;99.90;;;;;;5064785;28;20178;-87
2021/06/12 09:47:47;;;;;;;15.95;14.52;;;24.40;99.90;;;;;;5032962;28;20247;-81
2021/06/12 09:50:15;;;;;;;16.00;14.57;;;24.50;99.90;;;;;;5032492;28;20179;-85
2021/06/12 09:52:46;;;;;;;15.73;14.43;;;24.50;99.90;;;;;;5046797;28;20486;-87
2021/06/12 09:55:27;;;;;;;14.80;13.40;;;24.60;99.90;;;;;;5046760;28;20294;-85
2021/06/12 09:57:53;;;;;;;16.23;14.52;;;24.60;99.90;;;;;;5035337;28;20259;-85
2021/06/12 10:00:34;;;;;;;15.13;13.63;;;24.50;99.90;;;;;;5054173;28;20222;-84
2021/06/12 10:03:00;;;;;;;15.07;13.50;;;24.40;99.90;;;;;;5041723;28;20504;-84
2021/06/12 10:05:27;;;;;;;14.05;12.90;;;24.70;99.90;;;;;;5068495;28;20492;-84
2021/06/12 10:07:53;;;;;;;13.35;12.15;;;25.00;99.90;;;;;;5068704;28;20164;-82
2021/06/12 10:10:19;;;;;;;14.85;13.38;;;25.50;99.90;;;;;;5036019;28;20208;-82
2021/06/12 10:12:48;;;;;;;14.80;13.23;;;25.70;99.90;;;;;;5036577;28;20648;-82
2021/06/12 10:15:15;;;;;;;14.35;13.10;;;25.20;99.90;;;;;;5043698;28;20212;-81
2021/06/12 10:17:52;;;;;;;14.75;13.35;;;25.00;99.90;;;;;;5036177;28;20172;-81
2021/06/12 10:20:23;;;;;;;15.35;13.63;;;24.70;99.90;;;;;;5035334;28;20164;-83
2021/06/12 10:22:51;;;;;;;14.95;12.15;;;24.80;99.90;;;;;;5036023;28;20210;-82
2021/06/12 10:25:18;;;;;;;13.00;12.00;;;25.90;99.90;;;;;;5037621;28;20179;-82
2021/06/12 10:27:44;;;;;;;13.18;12.18;;;27.00;99.90;;;;;;5033329;28;20560;-82
2021/06/12 10:30:12;;;;;;;11.43;10.50;;;27.80;99.90;;;;;;5051567;28;20233;-82
2021/06/12 10:32:46;;;;;;;12.38;11.25;;;29.10;99.90;;;;;;5034331;28;20279;-83
2021/06/12 10:35:16;;;;;;;56.00;14.32;;;30.60;99.90;;;;;;5045593;28;20199;-82
2021/06/12 10:38:06;;;;;;;90.28;14.38;;;30.50;99.90;;;;;;5035865;28;20171;-82
2021/06/12 10:40:40;;;;;;;114.30;20.20;;;30.00;99.90;;;;;;5035509;28;20156;-83
2021/06/12 10:43:08;;;;;;;10.20;9.60;;;29.10;99.90;;;;;;5036331;28;20255;-83
2021/06/12 10:45:34;;;;;;;12.45;11.30;;;28.60;99.90;;;;;;5042498;28;20172;-83
2021/06/12 10:48:00;;;;;;;12.35;11.35;;;27.50;99.90;;;;;;5039708;28;20168;-81
2021/06/12 10:50:25;;;;;;;13.05;10.70;;;27.20;99.90;;;;;;5035912;28;20176;-82
2021/06/12 10:53:13;;;;;;;16.30;9.60;;;28.10;99.90;;;;;;5035271;28;20616;-82
2021/06/12 10:55:44;;;;;;;130.43;19.80;;;29.30;99.90;;;;;;5036339;28;20223;-88
2021/06/12 10:58:34;;;;;;;11.05;10.02;;;30.00;99.90;;;;;;5033827;28;20525;-84
2021/06/12 11:01:09;;;;;;;10.07;9.48;;;30.50;99.90;;;;;;5034619;28;20229;-84
2021/06/12 11:06:55;;;;;;;9.27;8.48;;;29.50;99.90;;;;;;5063509;28;20191;-84
2021/06/12 11:09:27;;;;;;;9.35;8.52;;;28.80;99.90;;;;;;5035278;28;20164;-79
2021/06/12 11:11:54;;;;;;;8.35;7.72;;;29.10;99.90;;;;;;5034949;28;20685;-87
2021/06/12 11:14:22;;;;;;;9.50;8.80;;;29.30;99.90;;;;;;5034760;28;20204;-82
2021/06/12 11:17:12;;;;;;;9.85;8.90;;;31.10;99.90;;;;;;5048573;28;20218;-82
2021/06/12 11:19:56;;;;;;;8.57;8.07;;;31.40;99.90;;;;;;5034910;28;20163;-84
2021/06/12 11:22:29;;;;;;;12.05;8.65;;;30.30;99.90;;;;;;5050173;28;20183;-84
2021/06/12 11:25:27;;;;;;;8.35;7.68;;;29.70;99.90;;;;;;5034347;28;20250;-84
2021/06/12 11:28:14;;;;;;;9.05;8.30;;;28.80;99.90;;;;;;5052354;28;20250;-84
2021/06/12 11:30:40;;;;;;;8.10;7.57;;;27.60;99.90;;;;;;5035178;28;20565;-83
2021/06/12 11:33:06;;;;;;;8.82;8.00;;;27.00;99.90;;;;;;5035352;28;20164;-84
2021/06/12 11:35:40;;;;;;;9.88;7.75;;;26.80;99.90;;;;;;5033954;28;20230;-83
2021/06/12 11:38:30;;;;;;;8.35;7.57;;;27.60;99.90;;;;;;5035561;28;20225;-84
2021/06/12 11:41:16;;;;;;;6.95;6.43;;;30.50;99.90;;;;;;5026882;28;20180;-85
2021/06/12 11:43:50;;;;;;;14.82;6.03;;;33.50;99.90;;;;;;5029336;28;20194;-83
2021/06/12 11:46:29;;;;;;;5.57;5.10;;;34.60;99.90;;;;;;5035292;28;20629;-85
2021/06/12 11:48:55;;;;;;;5.95;4.70;;;33.70;99.90;;;;;;5034906;28;22526;-87
2021/06/12 11:51:31;;;;;;;9.88;5.60;;;31.90;99.90;;;;;;5034409;28;20172;-82
2021/06/12 11:54:10;;;;;;;5.25;4.57;;;32.20;99.90;;;;;;5032739;28;20191;-84
2021/06/12 11:56:43;;;;;;;7.10;5.03;;;33.30;99.90;;;;;;5033584;28;20178;-81
2021/06/12 11:59:11;;;;;;;5.10;4.63;;;32.90;99.90;;;;;;5034762;28;20251;-83
2021/06/12 12:01:44;;;;;;;3.97;3.78;;;33.90;99.10;;;;;;5053211;28;20184;-80
2021/06/12 12:04:15;;;;;;;9.10;4.22;;;33.80;99.10;;;;;;5015363;28;20207;-83
2021/06/12 12:07:08;;;;;;;12.10;4.03;;;33.20;96.70;;;;;;5016934;28;20172;-85
2021/06/12 12:09:35;;;;;;;3.45;3.15;;;33.30;96.30;;;;;;5032211;28;20423;-85
2021/06/12 12:12:02;;;;;;;5.03;4.10;;;33.70;96.20;;;;;;5034977;28;20164;-86
2021/06/12 12:14:38;;;;;;;3.92;3.13;;;33.70;95.20;;;;;;5033581;28;20285;-85
2021/06/12 12:17:06;;;;;;;5.85;3.80;;;34.20;96.40;;;;;;5033496;28;20176;-85
2021/06/12 12:19:32;;;;;;;5.10;2.70;;;34.00;94.90;;;;;;5033928;28;20255;-86
2021/06/12 12:22:00;;;;;;;3.22;2.97;;;32.60;96.90;;;;;;5034264;28;20265;-85
2021/06/12 12:24:32;;;;;;;2.50;2.20;;;31.40;97.10;;;;;;5032851;28;20188;-84
2021/06/12 12:27:07;;;;;;;7.07;2.90;;;30.50;98.20;;;;;;5040063;28;20167;-86
2021/06/12 12:29:38;;;;;;;5.22;2.80;;;30.00;99.10;;;;;;5033129;28;20172;-85
2021/06/12 12:32:04;;;;;;;4.68;2.67;;;29.50;98.70;;;;;;5033629;28;20168;-84
2021/06/12 12:34:36;;;;;;;4.35;3.08;;;29.40;98.90;;;;;;5032374;28;20722;-84
2021/06/12 12:37:02;;;;;;;6.13;4.82;;;29.10;99.10;;;;;;5034372;28;20168;-87
2021/06/12 12:39:45;;;;;;;7.28;5.70;;;28.30;99.90;;;;;;5020306;28;20645;-86
2021/06/12 12:42:15;;;;;;;73.70;8.52;;;27.30;99.90;;;;;;5033865;28;20191;-85
2021/06/12 12:44:43;;;;;;;21.52;5.43;;;27.10;99.90;;;;;;5048558;28;20685;-86